Time;durP1;ratioP1;P1;durP2;ratioP2;P2;SDS_P1;SDS_P2;PMS_P1;PMS_P2;Temp;Humidity;BMP_temperature;BMP_pressure;BME280_temperature;BME280_humidity;BME280_pressure;Samples;Min_cycle;Max_cycle;Signal;HPM_P1;HPM_P2
2021/11/26 00:01:39;;;;;;;1.42;1.02;;;20.60;47.70;;;;;;6217111;28;20117;-70
2021/11/26 00:04:40;;;;;;;1.33;1.00;;;20.60;47.60;;;;;;6194510;28;20038;-70
2021/11/26 00:07:41;;;;;;;1.33;1.10;;;20.60;47.60;;;;;;6196657;28;20387;-69
2021/11/26 00:10:41;;;;;;;2.15;1.15;;;20.60;47.70;;;;;;6233404;28;20037;-69
2021/11/26 00:13:47;;;;;;;2.05;1.10;;;20.60;47.70;;;;;;6209669;28;20042;-70
2021/11/26 00:16:55;;;;;;;2.00;1.00;;;20.60;47.70;;;;;;6208282;28;20038;-69
2021/11/26 00:19:56;;;;;;;2.15;1.13;;;20.60;47.70;;;;;;6228203;28;20037;-69
2021/11/26 00:22:57;;;;;;;1.55;1.05;;;20.60;47.80;;;;;;6217871;28;20033;-70
2021/11/26 00:25:57;;;;;;;1.60;0.90;;;20.60;47.90;;;;;;6206206;28;20423;-70
2021/11/26 00:28:58;;;;;;;2.65;1.05;;;20.60;47.90;;;;;;6217597;28;20026;-69
2021/11/26 00:31:59;;;;;;;1.25;0.82;;;20.60;47.80;;;;;;6196531;28;20023;-69
2021/11/26 00:35:00;;;;;;;1.08;0.90;;;20.60;47.80;;;;;;6193700;28;20026;-70
2021/11/26 00:38:03;;;;;;;1.65;1.15;;;20.60;47.90;;;;;;6209738;28;20065;-69
2021/11/26 00:41:04;;;;;;;1.77;1.05;;;20.60;48.00;;;;;;6217591;28;20018;-69
2021/11/26 00:44:05;;;;;;;1.50;1.10;;;20.60;48.00;;;;;;6219691;28;20029;-69
2021/11/26 00:47:06;;;;;;;1.38;0.90;;;20.60;48.00;;;;;;6221558;28;20026;-69
2021/11/26 00:50:09;;;;;;;1.40;0.80;;;20.60;48.00;;;;;;6222200;28;20073;-69
2021/11/26 00:53:09;;;;;;;2.08;1.20;;;20.60;48.00;;;;;;6222441;28;20660;-69
2021/11/26 00:56:10;;;;;;;2.03;1.33;;;20.60;48.70;;;;;;6237304;28;20026;-69
2021/11/26 00:59:11;;;;;;;1.45;1.00;;;20.60;48.00;;;;;;6198671;28;20038;-69
2021/11/26 01:02:11;;;;;;;2.25;1.10;;;20.60;47.90;;;;;;6201956;28;20030;-69
2021/11/26 01:05:14;;;;;;;1.35;1.02;;;20.60;48.70;;;;;;6237442;28;20029;-69
2021/11/26 01:08:14;;;;;;;1.35;0.80;;;20.60;48.00;;;;;;6210424;28;20040;-69
2021/11/26 01:11:15;;;;;;;1.77;1.00;;;20.60;48.00;;;;;;6221679;28;20029;-70
2021/11/26 01:14:16;;;;;;;1.65;0.90;;;20.60;48.00;;;;;;6208390;28;20050;-69
2021/11/26 01:17:17;;;;;;;2.80;1.20;;;20.60;48.10;;;;;;6196882;28;20530;-70
2021/11/26 01:20:22;;;;;;;1.95;0.93;;;20.60;48.10;;;;;;6197125;28;20038;-70
2021/11/26 01:23:25;;;;;;;1.52;0.90;;;20.60;48.10;;;;;;6207980;28;20026;-69
2021/11/26 01:26:25;;;;;;;1.70;1.10;;;20.60;48.20;;;;;;6210094;28;20018;-69
2021/11/26 01:29:26;;;;;;;1.02;0.90;;;20.60;48.20;;;;;;6220977;28;20506;-69
2021/11/26 01:32:27;;;;;;;1.38;0.90;;;20.60;48.20;;;;;;6208318;28;20065;-69
2021/11/26 01:35:29;;;;;;;2.30;1.30;;;20.60;48.20;;;;;;6220956;28;20439;-69
2021/11/26 01:38:29;;;;;;;1.05;0.90;;;20.60;48.20;;;;;;6219438;28;20076;-69
2021/11/26 01:41:30;;;;;;;1.00;0.90;;;20.60;48.20;;;;;;6220595;28;20546;-69
2021/11/26 01:44:31;;;;;;;1.10;0.93;;;20.60;48.30;;;;;;6220799;28;20025;-69
2021/11/26 01:47:32;;;;;;;3.47;1.15;;;20.50;48.20;;;;;;6220345;28;20399;-69
2021/11/26 01:50:32;;;;;;;1.13;0.73;;;20.50;48.20;;;;;;6219440;28;20045;-69
2021/11/26 01:53:34;;;;;;;1.27;0.90;;;20.60;48.40;;;;;;6203352;28;20077;-69
2021/11/26 01:56:35;;;;;;;0.90;0.80;;;20.60;48.30;;;;;;6194090;28;20026;-70
2021/11/26 01:59:36;;;;;;;1.45;1.10;;;20.60;48.40;;;;;;6220459;28;20053;-69
2021/11/26 02:02:37;;;;;;;1.20;0.82;;;20.60;48.30;;;;;;6212711;28;20036;-69
2021/11/26 02:05:38;;;;;;;1.27;0.82;;;20.60;48.30;;;;;;6194524;28;20037;-69
2021/11/26 02:08:38;;;;;;;1.60;0.90;;;20.60;48.30;;;;;;6194427;28;20488;-70
2021/11/26 02:11:39;;;;;;;1.15;1.05;;;20.50;48.30;;;;;;6196138;28;20048;-69
2021/11/26 02:14:40;;;;;;;1.35;0.80;;;20.60;48.40;;;;;;6196083;28;20053;-69
2021/11/26 02:17:41;;;;;;;1.80;0.90;;;20.50;48.30;;;;;;6195381;28;20524;-69
2021/11/26 02:20:44;;;;;;;1.50;0.88;;;20.50;48.30;;;;;;6195919;28;20022;-70
2021/11/26 02:23:46;;;;;;;1.45;0.80;;;20.50;48.40;;;;;;6204414;28;20047;-69
2021/11/26 02:26:49;;;;;;;1.85;0.90;;;20.50;48.30;;;;;;6201686;28;20034;-69
2021/11/26 02:29:53;;;;;;;1.35;0.90;;;20.50;48.40;;;;;;6195517;28;20033;-70
2021/11/26 02:32:58;;;;;;;1.27;0.80;;;20.50;48.40;;;;;;6208760;28;20029;-69
2021/11/26 02:35:59;;;;;;;2.20;1.10;;;20.50;48.40;;;;;;6219627;28;20760;-69
2021/11/26 02:39:00;;;;;;;0.93;0.80;;;20.50;48.50;;;;;;6219371;28;20037;-69
2021/11/26 02:42:00;;;;;;;0.95;0.85;;;20.50;48.50;;;;;;6219663;28;20449;-69
2021/11/26 02:45:01;;;;;;;1.55;1.00;;;20.50;48.50;;;;;;6219470;28;20127;-70
2021/11/26 02:48:03;;;;;;;2.65;1.17;;;20.50;48.50;;;;;;6205480;28;20033;-69
2021/11/26 02:51:04;;;;;;;1.08;0.70;;;20.50;48.50;;;;;;6195599;28;20033;-69
2021/11/26 02:54:05;;;;;;;1.83;0.90;;;20.60;48.60;;;;;;6194775;28;20018;-70
2021/11/26 02:57:06;;;;;;;1.00;0.73;;;20.50;48.50;;;;;;6199114;28;20030;-70
2021/11/26 03:00:09;;;;;;;1.13;0.80;;;20.60;48.60;;;;;;6219882;28;20026;-69
2021/11/26 03:03:10;;;;;;;1.08;0.60;;;20.50;48.50;;;;;;6219441;28;20122;-69
2021/11/26 03:06:11;;;;;;;2.90;1.05;;;20.50;48.50;;;;;;6233841;28;20030;-70
2021/11/26 03:09:11;;;;;;;2.53;0.90;;;20.50;48.50;;;;;;6201014;28;20041;-69
2021/11/26 03:12:12;;;;;;;3.55;1.17;;;20.60;48.60;;;;;;6194549;28;20504;-70
2021/11/26 03:15:14;;;;;;;4.55;1.52;;;20.60;48.60;;;;;;6194117;28;20046;-70
2021/11/26 03:18:18;;;;;;;4.35;1.83;;;20.50;48.50;;;;;;6194929;28;20023;-70
2021/11/26 03:21:18;;;;;;;7.13;1.63;;;20.60;48.60;;;;;;6194538;28;20014;-69
2021/11/26 03:24:19;;;;;;;5.15;1.60;;;20.60;48.60;;;;;;6212123;28;20049;-70
2021/11/26 03:27:20;;;;;;;5.38;1.88;;;20.60;48.60;;;;;;6232942;28;20312;-69
2021/11/26 03:30:21;;;;;;;2.85;1.48;;;20.50;48.50;;;;;;6212110;28;20027;-70
2021/11/26 03:33:22;;;;;;;7.32;1.85;;;20.50;48.50;;;;;;6194148;28;20064;-69
2021/11/26 03:36:23;;;;;;;8.77;2.28;;;20.50;48.60;;;;;;6195951;28;20030;-69
2021/11/26 03:39:24;;;;;;;12.10;2.33;;;20.50;48.60;;;;;;6218519;28;20133;-69
2021/11/26 03:42:24;;;;;;;10.38;2.42;;;20.50;48.70;;;;;;6208568;28;20028;-69
2021/11/26 03:45:29;;;;;;;9.30;2.30;;;20.60;48.80;;;;;;6192666;28;20026;-69
2021/11/26 03:48:30;;;;;;;10.65;2.63;;;20.50;48.70;;;;;;6210676;28;20030;-69
2021/11/26 03:51:32;;;;;;;11.30;2.22;;;20.50;48.70;;;;;;6218603;28;20026;-70
2021/11/26 03:54:33;;;;;;;11.07;2.45;;;20.50;48.80;;;;;;6216464;28;20032;-69
2021/11/26 03:57:34;;;;;;;6.65;2.03;;;20.50;48.80;;;;;;6217462;28;20018;-70
2021/11/26 04:00:41;;;;;;;12.43;2.67;;;20.50;48.80;;;;;;6216772;28;20037;-70
2021/11/26 04:03:42;;;;;;;8.63;2.55;;;20.60;48.90;;;;;;6201553;28;20392;-69
2021/11/26 04:06:43;;;;;;;9.90;2.20;;;20.60;48.90;;;;;;6194229;28;20033;-69
2021/11/26 04:09:43;;;;;;;9.27;2.25;;;20.50;48.90;;;;;;6215800;28;20502;-70
2021/11/26 04:12:47;;;;;;;7.57;2.60;;;20.60;48.90;;;;;;6212812;28;20019;-69
2021/11/26 04:15:49;;;;;;;11.00;2.53;;;20.50;48.80;;;;;;6193615;28;20089;-70
2021/11/26 04:18:49;;;;;;;12.15;2.45;;;20.60;48.90;;;;;;6202481;28;20377;-70
2021/11/26 04:21:50;;;;;;;13.15;2.30;;;20.50;48.80;;;;;;6198469;28;20030;-69
2021/11/26 04:24:51;;;;;;;7.32;2.30;;;20.60;48.80;;;;;;6196833;28;20033;-69
2021/11/26 04:27:52;;;;;;;7.97;2.78;;;20.60;48.80;;;;;;6213545;28;20071;-69
2021/11/26 04:30:52;;;;;;;10.60;2.42;;;20.60;48.80;;;;;;6211535;28;20471;-70
2021/11/26 04:33:54;;;;;;;12.63;3.30;;;20.50;48.70;;;;;;6221119;28;20149;-70
2021/11/26 04:36:55;;;;;;;14.73;4.18;;;20.60;48.90;;;;;;6220908;28;20026;-69
2021/11/26 04:39:55;;;;;;;15.85;5.43;;;20.60;49.40;;;;;;6237226;28;20104;-69
2021/11/26 04:42:56;;;;;;;11.30;3.90;;;20.60;49.90;;;;;;6222608;28;20029;-69
2021/11/26 04:45:57;;;;;;;13.70;4.32;;;20.60;51.00;;;;;;6237138;28;20533;-69
2021/11/26 04:48:57;;;;;;;15.35;4.13;;;20.60;51.20;;;;;;6200580;28;20472;-69
2021/11/26 04:51:58;;;;;;;9.77;3.33;;;20.60;51.00;;;;;;6201812;28;20053;-69
2021/11/26 04:54:59;;;;;;;8.63;3.20;;;20.60;50.80;;;;;;6221836;28;20022;-70
2021/11/26 04:57:59;;;;;;;10.48;3.10;;;20.60;50.50;;;;;;6208727;28;20054;-69
2021/11/26 05:01:00;;;;;;;10.45;3.40;;;20.60;50.30;;;;;;6212637;28;20081;-69
2021/11/26 05:04:01;;;;;;;8.52;2.78;;;20.60;50.10;;;;;;6216787;28;20463;-69
2021/11/26 05:07:02;;;;;;;8.40;3.10;;;20.60;50.00;;;;;;6221513;28;20029;-70
2021/11/26 05:10:05;;;;;;;7.43;2.80;;;20.60;49.80;;;;;;6197895;28;20030;-70
2021/11/26 05:13:08;;;;;;;6.63;2.45;;;20.60;49.80;;;;;;6202728;28;20022;-74
2021/11/26 05:16:09;;;;;;;8.35;2.70;;;20.60;49.70;;;;;;6198618;28;20113;-69
2021/11/26 05:19:13;;;;;;;6.18;2.10;;;20.60;49.60;;;;;;6211124;28;20030;-70
2021/11/26 05:22:14;;;;;;;10.32;2.67;;;20.60;49.60;;;;;;6222283;28;20037;-74
2021/11/26 05:25:15;;;;;;;8.90;2.70;;;20.60;49.50;;;;;;6220646;28;20479;-74
2021/11/26 05:28:17;;;;;;;5.13;2.10;;;20.60;49.50;;;;;;6220467;28;20053;-73
2021/11/26 05:31:19;;;;;;;5.78;2.28;;;20.60;49.50;;;;;;6208552;28;20510;-70
2021/11/26 05:34:20;;;;;;;8.00;2.58;;;20.60;49.50;;;;;;6220744;28;20058;-74
2021/11/26 05:37:21;;;;;;;5.90;2.58;;;20.60;49.50;;;;;;6210672;28;20137;-70
2021/11/26 05:40:23;;;;;;;8.00;2.40;;;20.60;49.50;;;;;;6208107;28;20096;-70
2021/11/26 05:43:24;;;;;;;5.25;2.30;;;20.60;49.50;;;;;;6222265;28;20068;-74
2021/11/26 05:46:24;;;;;;;5.43;2.20;;;20.60;49.50;;;;;;6220711;28;20479;-69
2021/11/26 05:49:25;;;;;;;6.70;2.50;;;20.60;49.50;;;;;;6220506;28;20029;-70
2021/11/26 05:52:26;;;;;;;5.15;2.15;;;20.60;49.40;;;;;;6212439;28;20084;-69
2021/11/26 05:55:31;;;;;;;5.28;2.15;;;20.60;49.40;;;;;;6196224;28;20029;-69
2021/11/26 05:58:32;;;;;;;7.20;1.92;;;20.60;49.50;;;;;;6212407;28;20026;-69
2021/11/26 06:01:33;;;;;;;5.45;2.00;;;20.60;49.40;;;;;;6211863;28;20084;-69
2021/11/26 06:04:35;;;;;;;7.07;1.95;;;20.60;49.40;;;;;;6220070;28;20026;-70
2021/11/26 06:07:35;;;;;;;4.72;1.98;;;20.60;49.40;;;;;;6218760;28;20026;-69
2021/11/26 06:10:36;;;;;;;4.60;1.60;;;20.60;49.50;;;;;;6218630;28;20072;-69
2021/11/26 06:13:37;;;;;;;4.28;1.95;;;20.60;49.40;;;;;;6212592;28;20478;-69
2021/11/26 06:16:38;;;;;;;6.57;2.05;;;20.60;49.40;;;;;;6196083;28;20046;-69
2021/11/26 06:19:39;;;;;;;4.63;1.90;;;20.60;49.50;;;;;;6215737;28;20033;-69
2021/11/26 06:22:40;;;;;;;4.10;1.75;;;20.60;49.50;;;;;;6235124;28;20130;-70
2021/11/26 06:25:41;;;;;;;4.05;1.73;;;20.60;49.50;;;;;;6219775;28;20057;-70
2021/11/26 06:28:42;;;;;;;6.40;2.35;;;20.60;49.50;;;;;;6219593;28;20033;-69
2021/11/26 06:31:42;;;;;;;4.20;1.27;;;20.60;49.50;;;;;;6216566;28;20018;-69
2021/11/26 06:34:43;;;;;;;3.28;1.67;;;20.60;49.50;;;;;;6195447;28;20072;-69
2021/11/26 06:37:44;;;;;;;5.25;1.98;;;20.60;50.10;;;;;;6208421;28;20053;-69
2021/11/26 06:40:45;;;;;;;3.15;1.50;;;20.60;49.40;;;;;;6219637;28;20125;-69
2021/11/26 06:43:46;;;;;;;2.85;1.55;;;20.60;49.40;;;;;;6234103;28;20487;-69
2021/11/26 06:46:48;;;;;;;3.65;1.65;;;20.60;49.40;;;;;;6217822;28;20099;-70
2021/11/26 06:49:49;;;;;;;4.15;1.77;;;20.60;49.40;;;;;;6219681;28;20088;-70
2021/11/26 06:52:51;;;;;;;3.65;1.80;;;20.60;49.30;;;;;;6219622;28;20022;-70
2021/11/26 06:55:51;;;;;;;3.75;1.60;;;20.60;49.40;;;;;;6210797;28;20069;-70
2021/11/26 06:58:55;;;;;;;3.60;1.67;;;20.60;49.40;;;;;;6194319;28;20389;-70
2021/11/26 07:01:55;;;;;;;4.03;1.77;;;20.60;49.40;;;;;;6190442;28;20393;-70
2021/11/26 07:04:56;;;;;;;2.65;1.30;;;20.60;49.40;;;;;;6198303;28;20031;-73
2021/11/26 07:07:59;;;;;;;4.88;1.70;;;20.70;49.50;;;;;;6187714;28;20104;-71
2021/11/26 07:10:59;;;;;;;4.70;2.08;;;20.60;49.50;;;;;;6222086;28;20049;-71
2021/11/26 07:14:00;;;;;;;4.75;1.98;;;20.60;49.30;;;;;;6188682;28;20042;-70
2021/11/26 07:17:01;;;;;;;8.65;2.75;;;20.60;48.90;;;;;;6193105;28;20802;-70
2021/11/26 07:20:04;;;;;;;13.20;3.15;;;20.60;47.00;;;;;;6201866;28;20072;-70
2021/11/26 07:23:05;;;;;;;9.68;2.92;;;20.60;47.90;;;;;;6200865;28;20033;-69
2021/11/26 07:26:06;;;;;;;7.20;2.50;;;20.60;48.20;;;;;;6219095;28;20049;-70
2021/11/26 07:29:07;;;;;;;8.80;2.53;;;20.70;48.90;;;;;;6219428;28;20100;-68
2021/11/26 07:32:08;;;;;;;7.50;2.38;;;20.70;48.80;;;;;;6197529;28;20033;-68
2021/11/26 07:35:09;;;;;;;7.07;2.60;;;20.70;49.50;;;;;;6217912;28;20455;-68
2021/11/26 07:38:10;;;;;;;6.15;1.92;;;20.70;48.90;;;;;;6219507;28;20022;-69
2021/11/26 07:41:11;;;;;;;7.25;2.53;;;20.70;49.20;;;;;;6219160;28;20072;-69
2021/11/26 07:44:11;;;;;;;5.10;1.90;;;20.70;49.30;;;;;;6211668;28;20038;-68
2021/11/26 07:47:15;;;;;;;7.57;2.00;;;20.70;49.40;;;;;;6214890;28;20025;-69
2021/11/26 07:50:16;;;;;;;7.32;2.00;;;20.70;49.30;;;;;;6219071;28;20026;-69
2021/11/26 07:53:17;;;;;;;6.75;1.77;;;20.70;49.10;;;;;;6218407;28;20482;-69
2021/11/26 07:56:18;;;;;;;4.78;1.90;;;20.70;49.10;;;;;;6218565;28;20033;-69
2021/11/26 07:59:20;;;;;;;8.05;2.33;;;20.70;49.00;;;;;;6233325;28;20037;-69
2021/11/26 08:02:20;;;;;;;4.38;1.80;;;20.70;49.00;;;;;;6229522;28;20076;-69
2021/11/26 08:05:21;;;;;;;5.53;1.95;;;20.70;49.00;;;;;;6203803;28;20035;-69
2021/11/26 08:08:22;;;;;;;4.90;2.03;;;20.70;49.00;;;;;;6200339;28;20060;-69
2021/11/26 08:11:23;;;;;;;6.97;2.13;;;20.70;49.00;;;;;;6200446;28;20022;-68
2021/11/26 08:14:25;;;;;;;6.30;2.17;;;20.70;49.00;;;;;;6196075;28;20100;-68
2021/11/26 08:17:25;;;;;;;9.10;2.22;;;20.70;49.00;;;;;;6218762;28;20026;-68
2021/11/26 08:20:26;;;;;;;3.33;1.90;;;20.70;49.00;;;;;;6218944;28;20101;-69
2021/11/26 08:23:28;;;;;;;4.95;2.10;;;20.70;49.10;;;;;;6215233;28;20027;-69
2021/11/26 08:26:29;;;;;;;7.63;2.47;;;20.70;49.20;;;;;;6211062;28;20040;-69
2021/11/26 08:29:30;;;;;;;10.68;2.40;;;20.70;49.30;;;;;;6218459;28;20044;-69
2021/11/26 08:32:31;;;;;;;6.43;2.15;;;20.70;49.10;;;;;;6207369;28;20026;-70
2021/11/26 08:35:32;;;;;;;5.88;2.55;;;20.70;49.10;;;;;;6234957;28;20072;-69
2021/11/26 08:38:33;;;;;;;7.30;2.42;;;20.70;49.20;;;;;;6200605;28;20109;-69
2021/11/26 08:41:34;;;;;;;4.75;2.10;;;20.70;49.20;;;;;;6197989;28;20037;-69
2021/11/26 08:44:35;;;;;;;7.82;2.42;;;20.70;49.20;;;;;;6219871;28;20022;-70
2021/11/26 08:47:36;;;;;;;5.50;2.58;;;20.70;49.00;;;;;;6218238;28;20061;-69
2021/11/26 08:50:37;;;;;;;5.22;2.50;;;20.70;49.00;;;;;;6220183;28;20030;-69
2021/11/26 08:53:43;;;;;;;3.88;2.20;;;20.70;48.90;;;;;;6220301;28;20037;-70
2021/11/26 08:56:45;;;;;;;5.18;2.60;;;20.70;48.90;;;;;;6219617;28;20713;-69
2021/11/26 08:59:46;;;;;;;4.32;2.58;;;20.70;48.70;;;;;;6219395;28;20108;-69
2021/11/26 09:02:47;;;;;;;4.78;2.83;;;20.70;48.80;;;;;;6219487;28;20028;-70
2021/11/26 09:05:47;;;;;;;4.75;2.55;;;20.70;48.80;;;;;;6223432;28;20068;-68
2021/11/26 09:08:48;;;;;;;5.15;2.90;;;20.70;48.80;;;;;;6208090;28;20077;-69
2021/11/26 09:11:51;;;;;;;6.43;2.85;;;20.70;48.80;;;;;;6215787;28;20390;-69
2021/11/26 09:14:52;;;;;;;4.32;2.85;;;20.70;48.90;;;;;;6199106;28;20038;-69
2021/11/26 09:17:53;;;;;;;4.60;2.47;;;20.70;48.90;;;;;;6200607;28;20050;-69
2021/11/26 09:20:54;;;;;;;5.72;2.40;;;20.70;48.90;;;;;;6200777;28;20036;-69
2021/11/26 09:23:55;;;;;;;4.72;2.65;;;20.70;48.90;;;;;;6200319;28;20030;-69
2021/11/26 09:26:56;;;;;;;7.00;2.85;;;20.70;48.90;;;;;;6207613;28;20025;-69
2021/11/26 09:29:57;;;;;;;4.32;2.70;;;20.70;48.90;;;;;;6224314;28;20029;-69
2021/11/26 09:32:58;;;;;;;5.28;2.90;;;20.70;49.00;;;;;;6223359;28;20430;-69
2021/11/26 09:35:59;;;;;;;5.40;2.80;;;20.70;49.00;;;;;;6224795;28;20021;-69
2021/11/26 09:39:05;;;;;;;4.40;2.72;;;20.70;49.00;;;;;;6216775;28;20054;-69
2021/11/26 09:42:06;;;;;;;6.25;3.03;;;20.70;49.00;;;;;;6207328;28;20033;-69
2021/11/26 09:45:09;;;;;;;5.03;2.85;;;20.70;49.80;;;;;;6224392;28;20029;-69
2021/11/26 09:48:10;;;;;;;4.10;2.78;;;20.70;49.10;;;;;;6210097;28;20056;-69
2021/11/26 09:51:11;;;;;;;5.18;2.72;;;20.70;49.10;;;;;;6200072;28;20038;-69
2021/11/26 09:54:12;;;;;;;4.53;2.85;;;20.70;49.10;;;;;;6200207;28;20022;-69
2021/11/26 09:57:14;;;;;;;4.75;2.92;;;20.70;49.10;;;;;;6199768;28;20034;-69
2021/11/26 10:00:17;;;;;;;4.47;2.80;;;20.70;49.10;;;;;;6209896;28;20049;-69
2021/11/26 10:03:18;;;;;;;5.82;2.92;;;20.70;49.10;;;;;;6225871;28;20030;-69
2021/11/26 10:06:44;;;;;;;5.03;3.13;;;20.70;49.00;;;;;;6200153;28;20033;-69
2021/11/26 10:09:45;;;;;;;5.00;2.80;;;20.70;49.10;;;;;;6217810;28;20399;-69
2021/11/26 10:13:04;;;;;;;3.83;2.78;;;20.70;49.20;;;;;;6221691;28;20030;-69
2021/11/26 10:16:09;;;;;;;6.07;3.53;;;20.70;49.20;;;;;;6198437;28;20053;-69
2021/11/26 10:19:11;;;;;;;4.97;3.05;;;20.80;49.20;;;;;;6199750;28;20034;-69
2021/11/26 10:22:27;;;;;;;4.05;2.90;;;20.70;49.20;;;;;;6199417;28;20061;-69
2021/11/26 10:25:27;;;;;;;4.43;3.15;;;20.70;49.20;;;;;;6190751;28;20114;-69
2021/11/26 10:28:38;;;;;;;3.80;2.83;;;20.70;49.20;;;;;;6195284;28;20028;-69
2021/11/26 10:31:39;;;;;;;4.47;3.05;;;20.70;49.20;;;;;;6199114;28;20115;-69
2021/11/26 10:34:41;;;;;;;4.82;2.92;;;20.70;49.30;;;;;;6199203;28;20022;-69
2021/11/26 10:37:53;;;;;;;5.00;3.30;;;20.70;49.30;;;;;;6197732;28;20484;-69
2021/11/26 10:40:58;;;;;;;5.65;3.00;;;20.70;49.30;;;;;;6199395;28;20026;-69
2021/11/26 10:44:06;;;;;;;3.75;2.80;;;20.70;49.30;;;;;;6198883;28;20137;-69
2021/11/26 11:00:23;;;;;;;5.18;3.22;;;20.70;49.40;;;;;;6174171;28;20522;-69
2021/11/26 11:03:24;;;;;;;6.63;3.22;;;20.70;49.40;;;;;;6201220;28;20041;-69
2021/11/26 11:06:25;;;;;;;5.13;3.15;;;20.70;49.40;;;;;;6221666;28;20022;-69
2021/11/26 11:09:27;;;;;;;4.65;3.15;;;20.70;49.40;;;;;;6201232;28;20431;-69
2021/11/26 11:12:33;;;;;;;4.28;2.92;;;20.70;49.40;;;;;;6198267;28;20030;-69
2021/11/26 11:15:34;;;;;;;5.90;3.22;;;20.70;49.40;;;;;;6198063;28;20057;-69
2021/11/26 11:18:37;;;;;;;4.53;3.35;;;20.80;49.50;;;;;;6198023;28;20029;-69
2021/11/26 11:21:38;;;;;;;5.15;3.33;;;20.70;49.40;;;;;;6198124;28;20019;-69
2021/11/26 11:24:40;;;;;;;5.30;3.50;;;20.70;49.50;;;;;;6218116;28;20018;-69
2021/11/26 11:27:41;;;;;;;3.97;3.00;;;20.70;49.50;;;;;;6197811;28;20367;-69
2021/11/26 11:30:42;;;;;;;5.43;3.72;;;20.70;49.40;;;;;;6197225;28;20026;-69
2021/11/26 11:33:43;;;;;;;4.20;3.05;;;20.70;49.50;;;;;;6196710;28;20105;-69
2021/11/26 11:36:44;;;;;;;4.88;3.15;;;20.70;49.50;;;;;;6202373;28;20049;-69
2021/11/26 11:39:49;;;;;;;7.22;3.33;;;20.70;49.50;;;;;;6222542;28;20087;-69
2021/11/26 11:42:50;;;;;;;4.22;3.13;;;20.70;49.50;;;;;;6222564;28;20025;-69
2021/11/26 11:46:04;;;;;;;4.75;3.20;;;20.70;49.50;;;;;;6222204;28;20101;-69
2021/11/26 11:49:05;;;;;;;5.82;3.10;;;20.70;49.50;;;;;;6215134;28;20026;-69
2021/11/26 11:52:11;;;;;;;5.03;3.45;;;20.70;49.50;;;;;;6196369;28;20377;-69
2021/11/26 11:55:26;;;;;;;4.97;2.83;;;20.70;49.50;;;;;;6197741;28;20027;-69
2021/11/26 11:58:37;;;;;;;4.72;2.97;;;20.70;49.50;;;;;;6197541;28;20103;-69
2021/11/26 12:01:43;;;;;;;5.40;3.53;;;20.70;49.50;;;;;;6198044;28;20033;-69
2021/11/26 12:04:45;;;;;;;5.57;3.75;;;20.70;49.50;;;;;;6173955;28;20022;-69
2021/11/26 12:07:45;;;;;;;3.83;3.15;;;20.70;49.50;;;;;;6172192;28;20038;-69
2021/11/26 12:10:55;;;;;;;5.32;3.17;;;20.80;49.60;;;;;;6173483;28;20055;-69
2021/11/26 12:14:08;;;;;;;4.75;3.40;;;20.70;49.50;;;;;;6187869;28;20093;-69
2021/11/26 12:17:16;;;;;;;5.22;3.47;;;20.80;49.60;;;;;;6197610;28;20496;-69
2021/11/26 12:20:23;;;;;;;4.63;3.28;;;20.70;49.50;;;;;;6212638;28;20034;-69
2021/11/26 12:23:28;;;;;;;5.00;3.60;;;20.70;49.50;;;;;;6196907;28;20018;-68
2021/11/26 12:26:47;;;;;;;5.03;3.55;;;20.70;49.50;;;;;;6201339;28;20053;-69
2021/11/26 12:29:50;;;;;;;5.18;3.60;;;20.70;49.50;;;;;;6221492;28;20109;-69
2021/11/26 12:32:51;;;;;;;6.07;3.20;;;20.70;49.50;;;;;;6205695;28;20025;-69
2021/11/26 12:35:59;;;;;;;4.95;3.55;;;20.70;49.50;;;;;;6197100;28;20026;-69
2021/11/26 12:39:10;;;;;;;4.53;3.40;;;20.70;49.50;;;;;;6212419;28;20084;-68
2021/11/26 12:42:10;;;;;;;5.15;3.30;;;20.70;49.50;;;;;;6201925;28;20084;-69
2021/11/26 12:45:16;;;;;;;4.55;3.15;;;20.70;49.50;;;;;;6201666;28;20065;-66
2021/11/26 12:48:23;;;;;;;4.57;3.38;;;20.80;49.60;;;;;;6196800;28;20408;-68
2021/11/26 12:51:35;;;;;;;6.10;3.88;;;20.70;49.70;;;;;;6210474;28;20419;-68
2021/11/26 12:54:43;;;;;;;7.70;3.72;;;20.70;48.80;;;;;;6203500;28;20395;-68
2021/11/26 12:57:52;;;;;;;6.25;3.58;;;20.70;48.50;;;;;;6219316;28;20542;-68
2021/11/26 13:00:55;;;;;;;7.00;3.90;;;20.70;48.60;;;;;;6200045;28;20065;-68
2021/11/26 13:03:56;;;;;;;7.03;3.40;;;20.70;48.90;;;;;;6206988;28;20717;-69
2021/11/26 13:07:02;;;;;;;4.85;3.40;;;20.70;48.70;;;;;;6197459;28;20054;-70
2021/11/26 13:10:16;;;;;;;5.97;3.45;;;20.70;48.60;;;;;;6198604;28;20037;-68
2021/11/26 13:13:26;;;;;;;6.15;3.85;;;20.70;48.50;;;;;;6202493;28;20019;-68
2021/11/26 13:16:26;;;;;;;6.25;3.42;;;20.70;48.60;;;;;;6198331;28;20054;-73
2021/11/26 13:19:27;;;;;;;8.15;3.70;;;20.80;48.50;;;;;;6197608;28;20019;-73
2021/11/26 13:22:28;;;;;;;10.73;3.80;;;20.80;48.80;;;;;;6198379;28;20069;-73
2021/11/26 13:25:31;;;;;;;8.10;4.03;;;20.80;49.00;;;;;;6190015;28;20069;-73
2021/11/26 13:28:35;;;;;;;10.75;5.47;;;20.70;49.00;;;;;;6195284;28;20084;-73
2021/11/26 13:31:43;;;;;;;16.08;5.45;;;20.70;48.30;;;;;;6209561;28;20030;-73
2021/11/26 13:34:53;;;;;;;9.70;4.72;;;20.70;47.50;;;;;;6173754;28;20042;-73
2021/11/26 13:37:56;;;;;;;10.27;4.80;;;20.70;47.50;;;;;;6188117;28;20027;-74
2021/11/26 13:41:29;;;;;;;8.60;5.05;;;20.70;46.90;;;;;;6184144;28;20026;-73
2021/11/26 13:44:30;;;;;;;12.45;4.45;;;20.70;46.40;;;;;;6190044;28;20092;-72
2021/11/26 13:47:30;;;;;;;9.13;4.50;;;20.70;47.50;;;;;;6206554;28;20061;-71
2021/11/26 13:50:36;;;;;;;10.35;4.28;;;20.80;47.10;;;;;;6223462;28;20026;-72
2021/11/26 13:53:40;;;;;;;7.65;4.32;;;20.80;47.00;;;;;;6195631;28;20114;-71
2021/11/26 13:56:45;;;;;;;8.38;4.25;;;20.80;46.80;;;;;;6197544;28;20038;-72
2021/11/26 13:59:45;;;;;;;7.17;3.73;;;20.80;46.70;;;;;;6186077;28;20049;-71
2021/11/26 14:02:52;;;;;;;9.70;3.45;;;20.90;46.70;;;;;;6202171;28;20029;-71
2021/11/26 14:05:53;;;;;;;10.48;4.03;;;20.90;46.60;;;;;;6217315;28;20368;-72
2021/11/26 14:08:57;;;;;;;10.25;4.32;;;20.90;47.00;;;;;;6209165;28;20031;-72
2021/11/26 14:11:58;;;;;;;7.30;3.67;;;20.90;47.00;;;;;;6191728;28;20038;-72
2021/11/26 14:14:58;;;;;;;7.18;3.60;;;20.90;47.20;;;;;;6189903;28;20104;-71
2021/11/26 14:18:12;;;;;;;5.43;3.63;;;20.90;47.20;;;;;;6199364;28;20083;-71
2021/11/26 14:21:14;;;;;;;6.75;3.50;;;20.80;47.30;;;;;;6220144;28;20898;-71
2021/11/26 14:24:15;;;;;;;11.75;3.63;;;20.90;47.90;;;;;;6192153;28;20509;-71
2021/11/26 14:27:25;;;;;;;6.88;3.55;;;20.80;48.10;;;;;;6200206;28;20022;-71
2021/11/26 14:30:27;;;;;;;8.18;3.85;;;20.80;48.50;;;;;;6197903;28;20027;-71
2021/11/26 14:33:28;;;;;;;7.90;3.50;;;20.80;48.70;;;;;;6214936;28;20026;-71
2021/11/26 14:36:30;;;;;;;7.55;3.90;;;20.80;48.70;;;;;;6208631;28;20076;-72
2021/11/26 14:39:33;;;;;;;8.18;3.40;;;20.80;48.70;;;;;;6213414;28;20141;-72
2021/11/26 14:42:34;;;;;;;6.88;3.90;;;20.80;48.70;;;;;;6213057;28;20037;-72
2021/11/26 14:45:37;;;;;;;9.23;3.80;;;20.80;48.90;;;;;;6207530;28;20038;-69
2021/11/26 14:48:45;;;;;;;9.25;3.33;;;20.90;48.80;;;;;;6219515;28;20053;-70
2021/11/26 14:51:46;;;;;;;5.95;3.45;;;20.80;48.80;;;;;;6207156;28;20031;-70
2021/11/26 14:54:47;;;;;;;9.18;3.90;;;20.80;48.90;;;;;;6179478;28;20447;-70
2021/11/26 14:57:48;;;;;;;6.75;3.75;;;20.80;47.30;;;;;;6186382;28;20030;-70
2021/11/26 15:00:51;;;;;;;9.75;4.30;;;20.80;47.20;;;;;;6188434;28;20033;-70
2021/11/26 15:03:53;;;;;;;8.73;3.63;;;20.80;47.30;;;;;;6215250;28;20622;-70
2021/11/26 15:06:54;;;;;;;4.65;3.40;;;20.80;47.60;;;;;;6208052;28;20018;-70
2021/11/26 15:09:55;;;;;;;5.57;3.80;;;20.80;47.70;;;;;;6201886;28;20145;-70
2021/11/26 15:12:56;;;;;;;7.88;3.47;;;20.80;47.60;;;;;;6206544;28;20025;-71
2021/11/26 15:15:57;;;;;;;5.20;3.10;;;20.80;47.90;;;;;;6194525;28;20515;-70
2021/11/26 15:18:57;;;;;;;5.55;3.53;;;20.80;48.20;;;;;;6205735;28;20127;-70
2021/11/26 15:21:59;;;;;;;8.50;3.47;;;20.80;47.80;;;;;;6217843;28;20037;-70
2021/11/26 15:25:00;;;;;;;10.60;3.88;;;20.70;47.30;;;;;;6208596;28;20022;-70
2021/11/26 15:28:00;;;;;;;14.07;4.50;;;20.70;46.60;;;;;;6194350;28;20045;-70
2021/11/26 15:31:01;;;;;;;8.05;4.35;;;20.70;45.90;;;;;;6194448;28;20033;-69
2021/11/26 15:34:03;;;;;;;12.48;4.53;;;20.70;45.80;;;;;;6219280;28;20068;-71
2021/11/26 15:37:05;;;;;;;10.32;4.18;;;20.70;45.60;;;;;;6203088;28;20502;-70
2021/11/26 15:40:06;;;;;;;8.95;4.40;;;20.70;45.40;;;;;;6194271;28;20049;-68
2021/11/26 15:43:07;;;;;;;7.00;3.88;;;20.70;44.70;;;;;;6202177;28;20084;-71
2021/11/26 15:46:08;;;;;;;9.93;4.05;;;20.60;44.60;;;;;;6193854;28;20031;-70
2021/11/26 15:49:08;;;;;;;9.55;4.10;;;20.60;44.60;;;;;;6216100;28;20147;-69
2021/11/26 15:52:10;;;;;;;9.07;4.22;;;20.60;43.70;;;;;;6215889;28;20479;-69
2021/11/26 15:55:11;;;;;;;9.32;3.65;;;20.60;44.90;;;;;;6218668;28;20018;-69
2021/11/26 15:58:12;;;;;;;9.63;3.67;;;20.60;44.30;;;;;;6210691;28;20022;-69
2021/11/26 16:01:16;;;;;;;9.50;4.03;;;20.70;43.90;;;;;;6227526;28;20026;-69